createdAt,value
2019-03-09T00:01:21.542Z,9.74
2019-03-09T00:04:08.972Z,9.42
2019-03-09T00:06:56.081Z,9.75
2019-03-09T00:09:43.623Z,9.62
2019-03-09T00:12:30.826Z,9.54
2019-03-09T00:15:18.622Z,9.63
2019-03-09T00:18:06.187Z,9.48
2019-03-09T00:20:53.815Z,9.25
2019-03-09T00:23:59.057Z,9.40
2019-03-09T00:27:00.473Z,9.33
2019-03-09T00:29:52.542Z,9.26
2019-03-09T00:32:39.662Z,9.61
2019-03-09T00:35:27.188Z,9.57
2019-03-09T00:38:14.816Z,9.22
2019-03-09T00:41:02.648Z,9.48
2019-03-09T00:43:50.081Z,9.00
2019-03-09T00:46:37.600Z,9.31
2019-03-09T00:49:25.128Z,9.16
2019-03-09T00:52:12.347Z,9.24
2019-03-09T00:54:59.778Z,9.23
2019-03-09T00:57:47.296Z,9.22
2019-03-09T01:00:34.722Z,9.25
2019-03-09T01:03:22.473Z,9.51
2019-03-09T01:06:10.083Z,9.07
2019-03-09T01:08:57.917Z,9.41
2019-03-09T01:11:45.140Z,9.47
2019-03-09T01:14:33.175Z,9.27
2019-03-09T01:17:20.292Z,9.23
2019-03-09T01:20:14.148Z,9.24
2019-03-09T01:23:01.895Z,9.37
2019-03-09T01:25:49.322Z,9.35
2019-03-09T01:28:37.053Z,9.07
2019-03-09T01:31:24.682Z,9.22
2019-03-09T01:34:12.329Z,9.54
2019-03-09T01:37:00.040Z,9.41
2019-03-09T01:39:47.569Z,9.04
2019-03-09T01:42:34.997Z,9.13
2019-03-09T01:45:22.620Z,9.58
2019-03-09T01:48:10.352Z,9.53
2019-03-09T01:50:57.981Z,9.38
2019-03-09T01:53:45.609Z,9.22
2019-03-09T01:56:32.932Z,9.25
2019-03-09T01:59:20.867Z,9.27
2019-03-09T02:02:07.984Z,9.30
2019-03-09T02:04:55.835Z,9.48
2019-03-09T02:07:43.584Z,9.14
2019-03-09T02:10:31.385Z,9.27
2019-03-09T02:13:18.786Z,8.97
2019-03-09T02:16:06.234Z,9.07
2019-03-09T02:18:53.452Z,9.33
2019-03-09T02:21:40.886Z,8.90
2019-03-09T02:24:28.607Z,9.05
2019-03-09T02:27:16.238Z,9.15
2019-03-09T02:30:04.667Z,9.39
2019-03-09T02:32:52.323Z,9.35
2019-03-09T02:35:39.536Z,9.61
2019-03-09T02:38:31.465Z,9.34
2019-03-09T02:41:19.095Z,9.57
2019-03-09T02:44:06.621Z,9.59
2019-03-09T02:46:54.045Z,9.26
2019-03-09T02:49:41.262Z,9.32
2019-03-09T02:52:28.912Z,9.48
2019-03-09T02:55:16.626Z,9.04
2019-03-09T02:58:04.655Z,9.53
2019-03-09T03:01:06.114Z,9.51
2019-03-09T03:03:53.229Z,9.18
2019-03-09T03:06:41.068Z,9.14
2019-03-09T03:09:28.389Z,9.04
2019-03-09T03:12:15.949Z,9.27
2019-03-09T03:15:04.159Z,9.14
2019-03-09T03:17:51.377Z,9.58
2019-03-09T03:20:39.139Z,9.90
2019-03-09T03:23:26.535Z,9.96
2019-03-09T03:26:14.057Z,9.63
2019-03-09T03:29:01.583Z,9.81
2019-03-09T03:31:48.810Z,9.48
2019-03-09T03:34:36.243Z,9.30
2019-03-09T03:37:24.084Z,9.39
2019-03-09T03:40:12.741Z,9.15
2019-03-09T03:43:00.342Z,8.94
2019-03-09T03:45:48.078Z,9.09
2019-03-09T03:48:35.808Z,9.38
2019-03-09T03:51:23.335Z,9.57
2019-03-09T03:54:11.062Z,9.55
2019-03-09T03:56:58.795Z,9.23
2019-03-09T03:59:46.848Z,9.20
2019-03-09T04:02:34.567Z,9.32
2019-03-09T04:05:21.886Z,9.14
2019-03-09T04:08:09.719Z,9.13
2019-03-09T04:10:57.661Z,9.26
2019-03-09T04:13:45.503Z,8.87
2019-03-09T04:16:32.918Z,8.92
2019-03-09T04:19:20.568Z,8.65
2019-03-09T04:22:07.865Z,8.49
2019-03-09T04:24:55.190Z,8.89
2019-03-09T04:27:42.815Z,8.83
2019-03-09T04:30:30.546Z,8.71
2019-03-09T04:33:18.072Z,8.34
2019-03-09T04:36:05.516Z,8.62
2019-03-09T04:38:53.130Z,8.51
2019-03-09T04:41:40.653Z,8.53
2019-03-09T04:44:28.491Z,8.46
2019-03-09T04:47:16.014Z,8.09
2019-03-09T04:50:05.076Z,8.16
2019-03-09T04:53:00.705Z,8.00
2019-03-09T04:55:48.321Z,7.97
2019-03-09T04:58:35.839Z,8.06
2019-03-09T05:01:23.271Z,8.38
2019-03-09T05:04:20.321Z,7.86
2019-03-09T05:07:07.951Z,7.74
2019-03-09T05:09:58.554Z,7.80
2019-03-09T05:12:49.159Z,7.94
2019-03-09T05:15:36.581Z,7.87
2019-03-09T05:18:24.114Z,7.73
2019-03-09T05:21:11.835Z,7.83
2019-03-09T05:23:59.458Z,7.90
2019-03-09T05:26:47.294Z,7.88
2019-03-09T05:29:34.305Z,7.68
2019-03-09T05:32:22.042Z,7.76
2019-03-09T05:35:09.565Z,7.80
2019-03-09T05:37:56.787Z,7.69
2019-03-09T05:40:44.515Z,8.18
2019-03-09T05:43:32.455Z,8.05
2019-03-09T05:46:20.056Z,7.70
2019-03-09T05:49:07.198Z,7.68
2019-03-09T05:52:20.945Z,7.84
2019-03-09T05:55:11.889Z,7.74
2019-03-09T05:57:59.575Z,7.51
2019-03-09T06:00:46.936Z,7.62
2019-03-09T06:03:34.527Z,7.73
2019-03-09T06:06:22.053Z,7.99
2019-03-09T06:09:09.784Z,7.85
2019-03-09T06:11:57.049Z,7.58
2019-03-09T06:14:44.632Z,7.86
2019-03-09T06:17:32.162Z,8.13
2019-03-09T06:20:19.891Z,8.25
2019-03-09T06:23:07.214Z,8.32
2019-03-09T06:25:54.741Z,8.16
2019-03-09T06:28:43.086Z,7.19
2019-03-09T06:31:30.611Z,8.07
2019-03-09T06:34:18.250Z,8.06
2019-03-09T06:37:07.624Z,8.23
2019-03-09T06:39:57.261Z,8.13
2019-03-09T06:42:47.093Z,7.98
2019-03-09T06:45:34.489Z,7.91
2019-03-09T06:48:21.967Z,8.23
2019-03-09T06:51:09.337Z,8.30
2019-03-09T06:53:56.974Z,8.01
2019-03-09T06:56:44.393Z,8.14
2019-03-09T06:59:32.124Z,7.85
2019-03-09T07:02:20.161Z,8.44
2019-03-09T07:05:08.164Z,8.98
2019-03-09T07:07:55.318Z,8.71
2019-03-09T07:10:42.742Z,8.77
2019-03-09T07:13:29.923Z,9.17
2019-03-09T07:16:17.503Z,8.83
2019-03-09T07:19:05.121Z,9.07
2019-03-09T07:21:52.854Z,9.26
2019-03-09T07:24:40.489Z,9.00
2019-03-09T07:27:28.621Z,9.39
2019-03-09T07:30:17.393Z,9.20
2019-03-09T07:33:05.622Z,9.05
2019-03-09T07:35:53.041Z,8.76
2019-03-09T07:38:40.877Z,8.58
2019-03-09T07:41:28.400Z,8.61
2019-03-09T07:44:16.137Z,8.70
2019-03-09T07:47:03.674Z,9.07
2019-03-09T07:49:51.188Z,9.35
2019-03-09T07:52:39.156Z,9.18
2019-03-09T07:55:26.962Z,9.26
2019-03-09T07:58:14.484Z,9.45
2019-03-09T08:01:02.123Z,9.47
2019-03-09T08:03:49.844Z,9.50
2019-03-09T08:06:37.573Z,9.43
2019-03-09T08:09:25.509Z,9.79
2019-03-09T08:12:13.037Z,10.11
2019-03-09T08:15:00.564Z,10.44
2019-03-09T08:17:48.262Z,10.27
2019-03-09T08:20:35.518Z,10.32
2019-03-09T08:23:23.248Z,10.51
2019-03-09T08:26:10.783Z,10.30
2019-03-09T08:28:59.322Z,10.21
2019-03-09T08:31:46.802Z,9.80
2019-03-09T08:34:34.296Z,9.92
2019-03-09T08:37:21.705Z,10.37
2019-03-09T08:40:12.509Z,10.50
2019-03-09T08:42:59.733Z,10.98
2019-03-09T08:45:47.664Z,11.37
2019-03-09T08:48:35.186Z,11.42
2019-03-09T08:51:22.853Z,11.05
2019-03-09T08:54:10.464Z,10.79
2019-03-09T08:56:57.966Z,10.73
2019-03-09T08:59:45.289Z,10.87
2019-03-09T09:02:32.204Z,10.19
2019-03-09T09:05:19.933Z,10.88
2019-03-09T09:08:07.766Z,10.79
2019-03-09T09:10:55.703Z,10.90
2019-03-09T09:13:43.128Z,10.91
2019-03-09T09:16:30.661Z,11.17
2019-03-09T09:19:18.076Z,11.13
2019-03-09T09:22:06.820Z,11.02
2019-03-09T09:24:54.572Z,11.06
2019-03-09T09:27:42.400Z,10.89
2019-03-09T09:30:31.466Z,11.12
2019-03-09T09:33:18.481Z,11.29
2019-03-09T09:36:06.012Z,11.48
2019-03-09T09:38:53.629Z,12.18
2019-03-09T09:41:41.374Z,12.08
2019-03-09T09:44:28.785Z,12.52
2019-03-09T09:47:16.315Z,12.67
2019-03-09T09:50:04.455Z,13.07
2019-03-09T09:52:51.776Z,12.87
2019-03-09T09:55:39.300Z,12.16
2019-03-09T09:58:26.734Z,12.26
2019-03-09T10:01:14.662Z,12.17
2019-03-09T10:04:01.679Z,12.41
2019-03-09T10:06:49.734Z,12.23
2019-03-09T10:09:36.934Z,11.85
2019-03-09T10:12:24.578Z,12.22
2019-03-09T10:15:15.181Z,12.76
2019-03-09T10:18:02.791Z,12.35
2019-03-09T10:20:50.421Z,12.51
2019-03-09T10:23:38.153Z,12.19
2019-03-09T10:26:26.717Z,11.46
2019-03-09T10:29:14.332Z,11.71
2019-03-09T10:32:01.420Z,11.91
2019-03-09T10:34:49.293Z,12.13
2019-03-09T10:37:36.951Z,11.97
2019-03-09T10:40:24.764Z,11.89
2019-03-09T10:43:12.234Z,12.27
2019-03-09T10:45:59.801Z,12.22
2019-03-09T10:48:48.356Z,12.56
2019-03-09T10:51:36.182Z,12.73
2019-03-09T10:54:23.404Z,12.85
2019-03-09T10:57:11.029Z,12.32
2019-03-09T10:59:58.457Z,12.45
2019-03-09T11:02:46.186Z,12.69
2019-03-09T11:05:33.712Z,12.38
2019-03-09T11:08:21.340Z,12.25
2019-03-09T11:11:08.662Z,12.26
2019-03-09T11:13:56.496Z,12.44
2019-03-09T11:16:44.500Z,12.40
2019-03-09T11:19:31.994Z,12.29
2019-03-09T11:22:21.065Z,12.24
2019-03-09T11:25:10.112Z,12.35
2019-03-09T11:28:06.220Z,12.31
2019-03-09T11:30:53.943Z,12.47
2019-03-09T11:33:41.571Z,12.44
2019-03-09T11:36:29.305Z,12.65
2019-03-09T11:39:17.240Z,12.90
2019-03-09T11:42:05.074Z,13.10
2019-03-09T11:44:53.012Z,13.05
2019-03-09T11:47:40.439Z,13.08
2019-03-09T11:50:28.066Z,12.73
2019-03-09T11:53:15.488Z,13.07
2019-03-09T11:56:03.430Z,13.15
2019-03-09T11:58:51.195Z,13.12
2019-03-09T12:01:39.099Z,13.42
2019-03-09T12:04:26.722Z,13.44
2019-03-09T12:07:14.454Z,13.05
2019-03-09T12:10:01.679Z,13.18
2019-03-09T12:12:48.688Z,13.36
2019-03-09T12:15:36.628Z,13.24
2019-03-09T12:18:24.464Z,12.75
2019-03-09T12:21:12.192Z,13.02
2019-03-09T12:24:00.026Z,12.97
2019-03-09T12:26:47.655Z,13.25
2019-03-09T12:29:34.995Z,13.62
2019-03-09T12:32:22.805Z,13.74
2019-03-09T12:35:10.666Z,13.82
2019-03-09T12:37:58.269Z,14.02
2019-03-09T12:40:45.386Z,13.70
2019-03-09T12:43:32.609Z,13.20
2019-03-09T12:46:19.958Z,13.45
2019-03-09T12:49:07.352Z,13.64
2019-03-09T12:51:54.883Z,13.85
2019-03-09T12:54:42.620Z,14.02
2019-03-09T12:57:31.011Z,14.04
2019-03-09T13:00:22.538Z,14.49
2019-03-09T13:03:09.491Z,14.60
2019-03-09T13:05:57.230Z,14.22
2019-03-09T13:08:44.968Z,14.09
2019-03-09T13:11:32.587Z,14.33
2019-03-09T13:14:19.805Z,14.49
2019-03-09T13:17:07.327Z,14.55
2019-03-09T13:19:55.368Z,14.43
2019-03-09T13:22:42.894Z,14.37
2019-03-09T13:25:30.599Z,14.07
2019-03-09T13:28:18.575Z,14.27
2019-03-09T13:31:05.782Z,13.92
2019-03-09T13:33:54.023Z,14.07
2019-03-09T13:36:41.654Z,14.06
2019-03-09T13:39:29.282Z,14.18
2019-03-09T13:42:17.013Z,13.95
2019-03-09T13:45:04.572Z,13.71
2019-03-09T13:47:52.286Z,13.56
2019-03-09T13:50:40.110Z,13.64
2019-03-09T13:53:27.635Z,13.50
2019-03-09T13:56:15.183Z,13.53
2019-03-09T13:59:02.789Z,13.66
2019-03-09T14:01:50.828Z,13.64
2019-03-09T14:04:39.288Z,13.90
2019-03-09T14:07:26.902Z,13.50
2019-03-09T14:10:16.290Z,13.83
2019-03-09T14:13:04.112Z,13.89
2019-03-09T14:15:51.634Z,13.97
2019-03-09T14:18:39.108Z,13.75
2019-03-09T14:21:26.796Z,13.53
2019-03-09T14:24:14.421Z,13.47
2019-03-09T14:27:02.148Z,13.65
2019-03-09T14:29:49.675Z,13.93
2019-03-09T14:32:37.306Z,13.80
2019-03-09T14:35:25.036Z,13.84
2019-03-09T14:38:12.527Z,13.74
2019-03-09T14:40:59.893Z,13.31
2019-03-09T14:43:47.616Z,13.49
2019-03-09T14:46:34.629Z,13.42
2019-03-09T14:49:22.565Z,13.47
2019-03-09T14:52:10.299Z,13.45
2019-03-09T14:54:58.180Z,13.23
2019-03-09T14:57:45.453Z,12.88
2019-03-09T15:00:33.084Z,12.57
2019-03-09T15:03:20.407Z,12.40
2019-03-09T15:06:08.035Z,12.29
2019-03-09T15:08:55.583Z,12.28
2019-03-09T15:11:44.315Z,12.70
2019-03-09T15:14:32.051Z,12.57
2019-03-09T15:17:20.094Z,12.32
2019-03-09T15:20:10.275Z,11.85
2019-03-09T15:22:58.005Z,11.91
2019-03-09T15:25:45.430Z,12.41
2019-03-09T15:28:33.366Z,12.65
2019-03-09T15:31:20.484Z,12.44
2019-03-09T15:34:07.703Z,12.20
2019-03-09T15:36:57.058Z,12.44
2019-03-09T15:39:44.606Z,12.29
2019-03-09T15:42:32.023Z,12.47
2019-03-09T15:45:20.482Z,12.19
2019-03-09T15:48:07.895Z,12.36
2019-03-09T15:50:55.627Z,12.34
2019-03-09T15:53:43.154Z,11.83
2019-03-09T15:56:30.684Z,11.82
2019-03-09T15:59:17.900Z,11.84
2019-03-09T16:02:09.426Z,11.63
2019-03-09T16:04:57.052Z,11.39
2019-03-09T16:07:44.581Z,11.81
2019-03-09T16:10:32.410Z,11.49
2019-03-09T16:13:21.269Z,11.37
2019-03-09T16:16:08.690Z,11.44
2019-03-09T16:18:56.423Z,11.21
2019-03-09T16:21:43.746Z,11.21
2019-03-09T16:24:31.373Z,11.55
2019-03-09T16:27:18.797Z,11.23
2019-03-09T16:30:12.368Z,11.30
2019-03-09T16:32:59.899Z,11.33
2019-03-09T16:35:47.403Z,11.09
2019-03-09T16:38:35.080Z,11.13
2019-03-09T16:41:22.630Z,11.10
2019-03-09T16:44:11.127Z,11.34
2019-03-09T16:46:58.480Z,10.82
2019-03-09T16:49:45.972Z,10.81
2019-03-09T16:52:33.736Z,11.04
2019-03-09T16:55:21.651Z,11.43
2019-03-09T16:58:09.272Z,11.36
2019-03-09T17:00:56.718Z,11.05
2019-03-09T17:03:44.529Z,11.29
2019-03-09T17:06:32.374Z,11.27
2019-03-09T17:09:20.404Z,11.30
2019-03-09T17:12:07.932Z,11.15
2019-03-09T17:14:55.572Z,11.17
2019-03-09T17:17:42.879Z,11.01
2019-03-09T17:20:30.813Z,10.99
2019-03-09T17:23:18.443Z,11.08
2019-03-09T17:26:05.867Z,11.10
2019-03-09T17:28:53.601Z,10.80
2019-03-09T17:31:41.541Z,11.01
2019-03-09T17:34:29.368Z,11.18
2019-03-09T17:37:16.793Z,10.95
2019-03-09T17:40:05.763Z,10.84
2019-03-09T17:42:53.486Z,10.45
2019-03-09T17:45:41.217Z,10.33
2019-03-09T17:48:29.158Z,9.85
2019-03-09T17:51:17.136Z,9.61
2019-03-09T17:54:04.920Z,9.65
2019-03-09T17:56:52.447Z,9.83
2019-03-09T17:59:39.667Z,9.61
2019-03-09T18:02:27.194Z,9.60
2019-03-09T18:05:14.646Z,9.48
2019-03-09T18:08:02.251Z,9.53
2019-03-09T18:10:56.194Z,9.35
2019-03-09T18:13:43.655Z,9.68
2019-03-09T18:16:31.401Z,9.22
2019-03-09T18:19:18.909Z,9.12
2019-03-09T18:22:07.254Z,9.24
2019-03-09T18:24:54.681Z,9.30
2019-03-09T18:27:42.822Z,9.41
2019-03-09T18:30:30.370Z,9.39
2019-03-09T18:33:17.574Z,9.28
2019-03-09T18:36:05.612Z,9.32
2019-03-09T18:38:53.440Z,9.08
2019-03-09T18:41:41.171Z,8.99
2019-03-09T18:44:28.389Z,9.04
2019-03-09T18:47:16.237Z,9.16
2019-03-09T18:50:05.078Z,9.02
2019-03-09T18:52:52.300Z,8.96
2019-03-09T18:55:40.037Z,8.99
2019-03-09T18:58:27.557Z,8.87
2019-03-09T19:01:15.800Z,8.55
2019-03-09T19:04:03.237Z,8.70
2019-03-09T19:06:50.959Z,8.82
2019-03-09T19:09:38.280Z,8.80
2019-03-09T19:12:26.828Z,8.85
2019-03-09T19:15:18.407Z,8.94
2019-03-09T19:18:05.572Z,8.98
2019-03-09T19:20:52.892Z,8.79
2019-03-09T19:23:40.726Z,8.80
2019-03-09T19:26:27.736Z,8.99
2019-03-09T19:29:15.369Z,8.87
2019-03-09T19:32:03.097Z,9.08
2019-03-09T19:34:51.033Z,9.05
2019-03-09T19:37:38.665Z,8.90
2019-03-09T19:40:26.192Z,8.94
2019-03-09T19:43:13.614Z,8.89
2019-03-09T19:46:01.242Z,8.79
2019-03-09T19:48:48.569Z,8.76
2019-03-09T19:51:36.705Z,8.89
2019-03-09T19:54:24.132Z,8.61
2019-03-09T19:57:11.247Z,8.60
2019-03-09T19:59:59.083Z,8.79
2019-03-09T20:02:46.709Z,8.68
2019-03-09T20:05:34.749Z,8.77
2019-03-09T20:08:22.389Z,8.76
2019-03-09T20:11:09.905Z,8.73
2019-03-09T20:13:57.637Z,8.98
2019-03-09T20:16:44.961Z,9.08
2019-03-09T20:19:32.610Z,8.93
2019-03-09T20:22:20.117Z,8.95
2019-03-09T20:25:09.469Z,9.00
2019-03-09T20:27:56.704Z,9.06
2019-03-09T20:30:44.333Z,9.01
2019-03-09T20:33:32.064Z,8.97
2019-03-09T20:36:19.998Z,9.11
2019-03-09T20:39:07.428Z,9.20
2019-03-09T20:41:54.746Z,9.24
2019-03-09T20:44:42.377Z,9.15
2019-03-09T20:47:29.903Z,9.14
2019-03-09T20:50:18.970Z,9.31
2019-03-09T20:53:06.694Z,9.28
2019-03-09T20:55:54.325Z,9.22
2019-03-09T20:58:42.159Z,9.37
2019-03-09T21:01:29.686Z,9.47
2019-03-09T21:04:17.517Z,9.47
2019-03-09T21:07:05.249Z,9.37
2019-03-09T21:09:52.905Z,9.26
2019-03-09T21:12:54.437Z,9.35
2019-03-09T21:15:41.971Z,9.43
2019-03-09T21:18:29.385Z,9.28
2019-03-09T21:21:16.810Z,9.39
2019-03-09T21:24:04.541Z,9.12
2019-03-09T21:26:52.174Z,9.02
2019-03-09T21:29:39.595Z,9.17
2019-03-09T21:32:27.324Z,9.21
2019-03-09T21:35:14.758Z,9.15
2019-03-09T21:38:02.292Z,9.14
2019-03-09T21:40:49.904Z,9.00
2019-03-09T21:43:37.333Z,8.88
2019-03-09T21:46:25.060Z,8.87
2019-03-09T21:49:12.201Z,8.88
2019-03-09T21:51:59.910Z,9.07
2019-03-09T21:54:47.650Z,9.12
2019-03-09T21:57:35.372Z,8.93
2019-03-09T22:00:23.976Z,8.86
2019-03-09T22:03:11.691Z,8.90
2019-03-09T22:06:05.957Z,9.01
2019-03-09T22:08:49.677Z,9.11
2019-03-09T22:11:37.103Z,8.87
2019-03-09T22:14:24.732Z,9.16
2019-03-09T22:17:12.258Z,8.94
2019-03-09T22:19:59.818Z,8.72
2019-03-09T22:22:47.735Z,8.79
2019-03-09T22:25:36.278Z,8.60
2019-03-09T22:28:23.386Z,8.26
2019-03-09T22:31:10.710Z,8.28
2019-03-09T22:33:58.236Z,8.59
2019-03-09T22:36:45.870Z,8.43
2019-03-09T22:39:33.288Z,8.53
2019-03-09T22:42:20.929Z,8.47
2019-03-09T22:45:10.868Z,8.61
2019-03-09T22:47:58.861Z,8.54
2019-03-09T22:50:46.374Z,8.56
2019-03-09T22:53:34.406Z,8.61
2019-03-09T22:56:21.624Z,8.75
2019-03-09T22:59:09.044Z,8.87
2019-03-09T23:01:56.843Z,8.44
2019-03-09T23:04:44.202Z,8.58
2019-03-09T23:07:31.215Z,8.90
2019-03-09T23:10:23.350Z,9.01
2019-03-09T23:13:10.606Z,9.21
2019-03-09T23:15:57.687Z,8.95
2019-03-09T23:18:45.209Z,8.88
2019-03-09T23:21:32.232Z,8.97
2019-03-09T23:24:20.060Z,9.06
2019-03-09T23:27:07.079Z,9.15
2019-03-09T23:29:54.499Z,9.14
2019-03-09T23:32:44.490Z,8.82
2019-03-09T23:35:31.926Z,8.91
2019-03-09T23:38:20.667Z,8.78
2019-03-09T23:41:08.496Z,8.72
2019-03-09T23:43:55.717Z,8.87
2019-03-09T23:46:43.552Z,9.06
2019-03-09T23:49:31.281Z,9.06
2019-03-09T23:52:18.705Z,9.15
2019-03-09T23:55:07.736Z,8.73
2019-03-09T23:57:55.195Z,8.79
